Terminal Aerodrome Forecast
Issued by NWS Twin Cities, MN

Home | Current Version | Previous Version | Text Only | Print | Product List | Glossary On
Versions: 1 2 3 4 5 6 7 8 9 10 11 12 13 14 15
000
FTUS43 KMPX 072325
TAFSTC
TAF
KSTC 072325Z 0800/0824 31024G34KT 2SM -SN BLSN OVC020
      TEMPO 0800/0804 1SM -SN BLSN OVC015
     FM080400 32024G36KT 1 1/2SM -SN BLSN OVC015
     FM081700 33022G30KT P6SM OVC020
     FM082100 32018G28KT P6SM BKN025=

USA.gov is the U.S. government's official web portal to all federal, state and local government web resources and services.